createdAt,value
2022-10-29T00:00:18.919Z,98.58
2022-10-29T00:03:21.483Z,99.36
2022-10-29T00:06:23.066Z,100.00
2022-10-29T00:09:24.566Z,100.00
2022-10-29T00:12:26.081Z,100.00
2022-10-29T00:15:27.774Z,100.00
2022-10-29T00:18:30.382Z,100.00
2022-10-29T00:21:32.796Z,100.00
2022-10-29T00:24:34.399Z,100.00
2022-10-29T00:27:35.955Z,100.00
2022-10-29T00:30:37.525Z,100.00
2022-10-29T00:33:39.156Z,99.67
2022-10-29T00:36:40.760Z,99.70
2022-10-29T00:39:42.270Z,99.18
2022-10-29T00:42:43.886Z,99.47
2022-10-29T00:45:53.336Z,99.10
2022-10-29T00:48:56.535Z,98.66
2022-10-29T00:52:01.052Z,99.21
2022-10-29T00:55:07.227Z,99.24
2022-10-29T00:58:33.982Z,100.00
2022-10-29T01:01:38.172Z,100.00
2022-10-29T01:04:41.268Z,100.00
2022-10-29T01:07:43.014Z,100.00
2022-10-29T01:10:59.591Z,99.90
2022-10-29T01:14:24.337Z,99.73
2022-10-29T01:18:04.563Z,99.49
2022-10-29T01:21:27.686Z,99.17
2022-10-29T01:24:57.468Z,99.25
2022-10-29T01:28:17.363Z,99.09
2022-10-29T01:31:32.581Z,99.67
2022-10-29T01:34:50.796Z,99.59
2022-10-29T01:38:43.010Z,99.84
2022-10-29T01:41:59.925Z,99.52
2022-10-29T01:45:17.659Z,99.28
2022-10-29T01:48:33.046Z,99.82
2022-10-29T01:51:36.875Z,99.96
2022-10-29T01:54:43.918Z,99.82
2022-10-29T01:57:45.431Z,99.34
2022-10-29T02:00:56.584Z,98.26
2022-10-29T02:04:19.347Z,99.06
2022-10-29T02:07:55.747Z,98.56
2022-10-29T02:11:08.740Z,99.47
2022-10-29T02:14:17.573Z,99.72
2022-10-29T02:17:19.510Z,99.86
2022-10-29T02:20:21.394Z,99.48
2022-10-29T02:23:23.005Z,99.01
2022-10-29T02:26:24.643Z,98.10
2022-10-29T02:29:26.220Z,98.05
2022-10-29T02:32:27.765Z,98.35
2022-10-29T02:35:29.283Z,98.70
2022-10-29T02:38:30.860Z,98.53
2022-10-29T02:41:32.409Z,97.72
2022-10-29T02:44:33.980Z,98.13
2022-10-29T02:47:35.497Z,98.68
2022-10-29T02:50:37.510Z,99.13
2022-10-29T02:53:39.471Z,99.46
2022-10-29T02:56:41.034Z,100.00
2022-10-29T02:59:42.595Z,100.00
2022-10-29T03:02:44.272Z,100.00
2022-10-29T03:05:49.024Z,100.00
2022-10-29T03:08:50.999Z,100.00
2022-10-29T03:11:52.595Z,100.00
2022-10-29T03:14:54.134Z,100.00
2022-10-29T03:17:56.052Z,100.00
2022-10-29T03:20:57.769Z,100.00
2022-10-29T03:23:59.351Z,100.00
2022-10-29T03:27:00.963Z,100.00
2022-10-29T03:30:02.517Z,100.00
2022-10-29T03:33:04.229Z,100.00
2022-10-29T03:36:07.304Z,100.00
2022-10-29T03:39:08.850Z,100.00
2022-10-29T03:42:10.435Z,100.00
2022-10-29T03:45:12.351Z,100.00
2022-10-29T03:48:13.978Z,100.00
2022-10-29T03:51:15.598Z,100.00
2022-10-29T03:54:17.182Z,100.00
2022-10-29T03:57:18.787Z,100.00
2022-10-29T04:00:20.348Z,100.00
2022-10-29T04:03:21.923Z,100.00
2022-10-29T04:06:23.457Z,100.00
2022-10-29T04:09:25.060Z,100.00
2022-10-29T04:12:26.663Z,100.00
2022-10-29T04:15:28.177Z,100.00
2022-10-29T04:18:29.810Z,100.00
2022-10-29T04:23:25.439Z,100.00
2022-10-29T04:31:37.350Z,100.00
2022-10-29T04:34:38.885Z,100.00
2022-10-29T04:37:40.499Z,100.00
2022-10-29T04:40:41.978Z,100.00
2022-10-29T04:43:43.585Z,100.00
2022-10-29T04:46:45.135Z,100.00
2022-10-29T04:49:46.637Z,100.00
2022-10-29T04:52:48.255Z,100.00
2022-10-29T04:55:49.841Z,100.00
2022-10-29T04:58:52.724Z,100.00
2022-10-29T05:01:54.264Z,100.00
2022-10-29T05:04:55.804Z,100.00
2022-10-29T05:08:01.822Z,100.00
2022-10-29T05:11:05.135Z,100.00
2022-10-29T05:14:06.724Z,100.00
2022-10-29T05:17:08.444Z,100.00
2022-10-29T05:20:10.388Z,100.00
2022-10-29T05:23:12.175Z,100.00
2022-10-29T05:26:13.771Z,100.00
2022-10-29T05:29:15.379Z,100.00
2022-10-29T05:32:17.086Z,100.00
2022-10-29T05:35:18.702Z,100.00
2022-10-29T05:38:20.450Z,100.00
2022-10-29T05:41:21.950Z,100.00
2022-10-29T05:44:23.741Z,100.00
2022-10-29T05:47:25.784Z,100.00
2022-10-29T05:50:32.203Z,100.00
2022-10-29T05:53:33.791Z,100.00
2022-10-29T05:56:35.331Z,100.00
2022-10-29T05:59:36.919Z,100.00
2022-10-29T06:02:38.632Z,100.00
2022-10-29T06:05:40.258Z,100.00
2022-10-29T06:08:41.886Z,100.00
2022-10-29T06:11:43.771Z,100.00
2022-10-29T06:14:45.287Z,100.00
2022-10-29T06:17:47.633Z,100.00
2022-10-29T06:20:49.115Z,100.00
2022-10-29T06:23:54.006Z,100.00
2022-10-29T06:26:55.519Z,100.00
2022-10-29T06:29:57.145Z,100.00
2022-10-29T06:32:59.904Z,100.00
2022-10-29T06:36:01.839Z,100.00
2022-10-29T06:39:03.412Z,100.00
2022-10-29T06:42:05.030Z,100.00
2022-10-29T06:45:07.244Z,100.00
2022-10-29T06:48:09.114Z,100.00
2022-10-29T06:51:10.856Z,100.00
2022-10-29T06:54:12.533Z,100.00
2022-10-29T06:57:14.057Z,100.00
2022-10-29T07:00:15.704Z,100.00
2022-10-29T07:03:19.277Z,100.00
2022-10-29T07:06:20.734Z,100.00
2022-10-29T07:09:22.238Z,100.00
2022-10-29T07:12:23.783Z,100.00
2022-10-29T07:15:27.908Z,100.00
2022-10-29T07:18:32.762Z,100.00
2022-10-29T07:21:34.218Z,100.00
2022-10-29T07:24:35.687Z,100.00
2022-10-29T07:27:37.228Z,100.00
2022-10-29T07:30:39.391Z,100.00
2022-10-29T07:33:40.907Z,100.00
2022-10-29T07:36:42.471Z,100.00
2022-10-29T07:39:43.973Z,100.00
2022-10-29T07:42:45.549Z,100.00
2022-10-29T07:45:52.677Z,100.00
2022-10-29T07:48:54.200Z,99.53
2022-10-29T07:51:55.886Z,98.02
2022-10-29T07:54:57.502Z,97.59
2022-10-29T07:58:02.232Z,96.89
2022-10-29T08:01:05.127Z,96.65
2022-10-29T08:04:06.652Z,96.47
2022-10-29T08:07:08.157Z,95.87
2022-10-29T08:10:09.834Z,95.40
2022-10-29T08:13:11.423Z,95.69
2022-10-29T08:16:12.955Z,96.24
2022-10-29T08:19:14.468Z,96.63
2022-10-29T08:22:16.691Z,96.85
2022-10-29T08:25:23.880Z,96.78
2022-10-29T08:28:25.831Z,95.54
2022-10-29T08:31:27.629Z,94.50
2022-10-29T08:34:29.110Z,94.02
2022-10-29T08:37:31.705Z,95.26
2022-10-29T08:40:52.626Z,95.71
2022-10-29T08:47:16.533Z,92.74
2022-10-29T08:50:30.276Z,91.47
2022-10-29T08:53:38.507Z,90.68
2022-10-29T08:56:45.470Z,88.90
2022-10-29T09:00:04.763Z,86.99
2022-10-29T09:03:10.916Z,87.78
2022-10-29T09:06:41.712Z,87.38
2022-10-29T09:09:49.267Z,87.31
2022-10-29T09:13:04.768Z,86.59
2022-10-29T09:16:06.302Z,85.83
2022-10-29T09:19:43.967Z,85.85
2022-10-29T09:23:02.481Z,84.97
2022-10-29T09:26:10.618Z,85.06
2022-10-29T09:29:45.989Z,84.94
2022-10-29T09:33:07.172Z,85.45
2022-10-29T09:36:18.444Z,85.59
2022-10-29T09:39:41.555Z,83.59
2022-10-29T09:42:46.728Z,81.52
2022-10-29T09:46:00.506Z,79.88
2022-10-29T09:49:34.119Z,78.23
2022-10-29T09:52:39.429Z,76.14
2022-10-29T09:55:44.241Z,75.31
2022-10-29T09:58:52.075Z,75.40
2022-10-29T10:01:53.605Z,75.02
2022-10-29T10:05:00.857Z,74.09
2022-10-29T10:08:06.778Z,73.43
2022-10-29T10:11:18.619Z,72.19
2022-10-29T10:14:22.523Z,71.28
2022-10-29T10:17:23.934Z,69.94
2022-10-29T10:20:32.693Z,68.67
2022-10-29T10:23:47.577Z,68.09
2022-10-29T10:26:49.106Z,68.55
2022-10-29T10:30:14.016Z,69.13
2022-10-29T10:33:26.424Z,69.14
2022-10-29T10:36:30.118Z,69.37
2022-10-29T10:39:36.808Z,68.54
2022-10-29T10:42:42.845Z,67.42
2022-10-29T10:45:46.462Z,66.69
2022-10-29T10:49:03.349Z,66.26
2022-10-29T10:52:13.944Z,66.57
2022-10-29T10:55:25.766Z,66.13
2022-10-29T10:58:37.703Z,67.02
2022-10-29T11:01:47.195Z,67.36
2022-10-29T11:05:00.932Z,67.47
2022-10-29T11:08:14.363Z,67.92
2022-10-29T11:11:20.982Z,67.97
2022-10-29T11:14:30.197Z,67.66
2022-10-29T11:17:56.513Z,66.21
2022-10-29T11:21:20.092Z,65.84
2022-10-29T11:24:35.137Z,65.21
2022-10-29T11:27:53.139Z,64.93
2022-10-29T11:31:17.486Z,64.82
2022-10-29T11:34:21.940Z,64.33
2022-10-29T11:37:33.853Z,64.71
2022-10-29T11:41:04.740Z,65.00
2022-10-29T11:44:12.830Z,64.66
2022-10-29T11:47:23.131Z,64.38
2022-10-29T11:50:28.734Z,64.98
2022-10-29T11:53:41.330Z,64.50
2022-10-29T11:56:57.942Z,64.60
2022-10-29T12:00:19.070Z,63.83
2022-10-29T12:03:39.090Z,63.39
2022-10-29T12:06:54.857Z,62.68
2022-10-29T12:09:59.430Z,63.63
2022-10-29T12:13:11.228Z,64.46
2022-10-29T12:16:15.379Z,65.29
2022-10-29T12:19:55.901Z,66.79
2022-10-29T12:23:03.944Z,67.31
2022-10-29T12:26:26.174Z,68.34
2022-10-29T12:29:34.040Z,68.16
2022-10-29T12:32:48.394Z,67.17
2022-10-29T12:35:56.902Z,65.66
2022-10-29T12:39:00.263Z,63.55
2022-10-29T12:42:16.549Z,61.80
2022-10-29T12:45:28.756Z,61.33
2022-10-29T12:48:51.604Z,61.03
2022-10-29T12:52:15.813Z,60.30
2022-10-29T12:55:17.893Z,59.47
2022-10-29T12:58:44.619Z,59.50
2022-10-29T13:05:11.128Z,59.46
2022-10-29T13:08:27.780Z,59.46
2022-10-29T13:11:46.091Z,59.96
2022-10-29T13:15:01.059Z,60.02
2022-10-29T13:18:24.024Z,60.54
2022-10-29T13:21:54.320Z,59.99
2022-10-29T13:25:33.967Z,60.62
2022-10-29T13:28:35.699Z,60.13
2022-10-29T13:31:45.554Z,59.46
2022-10-29T13:35:01.427Z,59.49
2022-10-29T13:38:15.909Z,59.63
2022-10-29T13:41:27.794Z,58.98
2022-10-29T13:44:30.114Z,58.65
2022-10-29T13:47:31.933Z,58.06
2022-10-29T13:50:35.932Z,57.89
2022-10-29T13:53:43.374Z,57.86
2022-10-29T13:57:16.428Z,58.23
2022-10-29T14:00:21.347Z,58.05
2022-10-29T14:03:41.825Z,58.77
2022-10-29T14:06:44.900Z,59.14
2022-10-29T14:09:54.725Z,59.58
2022-10-29T14:13:01.275Z,60.01
2022-10-29T14:16:05.671Z,60.23
2022-10-29T14:19:15.190Z,60.63
2022-10-29T14:22:22.879Z,60.70
2022-10-29T14:25:24.416Z,60.66
2022-10-29T14:28:27.736Z,60.45
2022-10-29T14:31:29.319Z,60.43
2022-10-29T14:34:30.958Z,60.86
2022-10-29T14:37:37.239Z,62.15
2022-10-29T14:40:38.879Z,63.07
2022-10-29T14:43:41.054Z,63.80
2022-10-29T14:46:44.253Z,63.54
2022-10-29T14:49:48.714Z,64.09
2022-10-29T14:52:57.826Z,65.25
2022-10-29T14:56:01.927Z,67.29
2022-10-29T14:59:10.818Z,69.91
2022-10-29T15:05:37.251Z,71.60
2022-10-29T15:08:40.765Z,73.31
2022-10-29T15:11:57.577Z,76.63
2022-10-29T15:15:08.923Z,79.90
2022-10-29T15:18:21.222Z,81.50
2022-10-29T15:21:24.814Z,82.75
2022-10-29T15:24:26.935Z,82.89
2022-10-29T15:27:28.894Z,83.53
2022-10-29T15:30:36.562Z,84.03
2022-10-29T15:33:38.199Z,85.18
2022-10-29T15:36:47.873Z,85.59
2022-10-29T15:40:01.646Z,86.01
2022-10-29T15:43:27.146Z,86.09
2022-10-29T15:46:44.252Z,86.40
2022-10-29T15:49:45.779Z,87.67
2022-10-29T15:52:52.995Z,88.41
2022-10-29T15:55:54.482Z,89.21
2022-10-29T15:59:00.901Z,89.61
2022-10-29T16:02:08.937Z,89.41
2022-10-29T16:05:13.871Z,89.56
2022-10-29T16:08:29.237Z,89.81
2022-10-29T16:11:31.106Z,90.46
2022-10-29T16:14:32.552Z,91.36
2022-10-29T16:17:36.700Z,91.17
2022-10-29T16:20:38.289Z,90.61
2022-10-29T16:23:40.505Z,90.03
2022-10-29T16:26:43.118Z,89.97
2022-10-29T16:29:47.011Z,90.22
2022-10-29T16:32:52.648Z,90.49
2022-10-29T16:35:54.178Z,89.82
2022-10-29T16:38:55.694Z,89.38
2022-10-29T16:41:57.318Z,88.91
2022-10-29T16:44:59.130Z,88.71
2022-10-29T16:48:01.664Z,88.41
2022-10-29T16:51:04.580Z,87.68
2022-10-29T16:54:06.061Z,87.32
2022-10-29T16:57:07.632Z,86.12
2022-10-29T17:00:09.739Z,86.07
2022-10-29T17:03:13.100Z,85.60
2022-10-29T17:06:14.584Z,84.83
2022-10-29T17:09:16.123Z,85.11
2022-10-29T17:12:17.644Z,84.96
2022-10-29T17:15:20.112Z,85.34
2022-10-29T17:18:23.142Z,85.83
2022-10-29T17:21:25.044Z,86.01
2022-10-29T17:24:27.278Z,86.17
2022-10-29T17:27:28.875Z,85.43
2022-10-29T17:30:30.386Z,84.65
2022-10-29T17:33:31.895Z,84.28
2022-10-29T17:36:33.429Z,83.68
2022-10-29T17:39:35.145Z,84.69
2022-10-29T17:42:36.664Z,84.56
2022-10-29T17:45:38.234Z,85.74
2022-10-29T17:48:39.892Z,86.34
2022-10-29T17:51:41.845Z,86.91
2022-10-29T17:54:43.494Z,87.24
2022-10-29T17:57:45.094Z,87.23
2022-10-29T18:00:48.397Z,88.42
2022-10-29T18:03:50.185Z,88.38
2022-10-29T18:06:51.725Z,88.32
2022-10-29T18:09:53.245Z,87.95
2022-10-29T18:12:54.801Z,88.21
2022-10-29T18:15:56.267Z,88.47
2022-10-29T18:19:02.820Z,88.78
2022-10-29T18:22:04.824Z,89.58
2022-10-29T18:25:06.522Z,89.11
2022-10-29T18:28:08.014Z,89.13
2022-10-29T18:31:09.520Z,89.13
2022-10-29T18:34:12.737Z,89.12
2022-10-29T18:37:14.468Z,89.63
2022-10-29T18:40:16.142Z,89.56
2022-10-29T18:43:17.795Z,89.80
2022-10-29T18:46:20.138Z,88.99
2022-10-29T18:49:21.972Z,89.02
2022-10-29T18:52:23.631Z,88.68
2022-10-29T18:55:25.550Z,87.83
2022-10-29T18:58:27.066Z,88.10
2022-10-29T19:01:32.073Z,87.83
2022-10-29T19:04:34.019Z,88.00
2022-10-29T19:07:35.679Z,88.38
2022-10-29T19:10:39.719Z,88.28
2022-10-29T19:13:44.546Z,87.55
2022-10-29T19:16:46.133Z,88.43
2022-10-29T19:19:47.848Z,88.12
2022-10-29T19:22:49.678Z,87.57
2022-10-29T19:25:51.299Z,87.20
2022-10-29T19:28:52.876Z,87.40
2022-10-29T19:31:54.511Z,87.71
2022-10-29T19:34:56.027Z,88.06
2022-10-29T19:37:57.852Z,88.32
2022-10-29T19:40:59.831Z,88.58
2022-10-29T19:44:02.109Z,88.74
2022-10-29T19:47:03.859Z,89.37
2022-10-29T19:50:08.346Z,89.85
2022-10-29T19:53:09.995Z,90.21
2022-10-29T19:56:14.114Z,89.58
2022-10-29T19:59:15.722Z,88.90
2022-10-29T20:02:17.471Z,89.85
2022-10-29T20:05:20.381Z,90.11
2022-10-29T20:08:22.082Z,90.22
2022-10-29T20:11:23.775Z,90.53
2022-10-29T20:14:28.923Z,90.25
2022-10-29T20:17:31.496Z,90.22
2022-10-29T20:20:33.124Z,90.86
2022-10-29T20:23:35.614Z,90.86
2022-10-29T20:26:37.261Z,91.41
2022-10-29T20:29:38.785Z,91.66
2022-10-29T20:32:40.400Z,92.06
2022-10-29T20:35:41.992Z,91.83
2022-10-29T20:38:43.681Z,91.83
2022-10-29T20:41:45.331Z,91.76
2022-10-29T20:44:47.009Z,91.39
2022-10-29T20:47:48.765Z,91.21
2022-10-29T20:50:53.372Z,91.39
2022-10-29T20:53:55.643Z,91.68
2022-10-29T20:56:57.282Z,92.59
2022-10-29T20:59:59.070Z,93.08
2022-10-29T21:03:00.613Z,93.37
2022-10-29T21:06:04.045Z,93.21
2022-10-29T21:09:07.111Z,93.02
2022-10-29T21:12:08.726Z,93.80
2022-10-29T21:15:10.376Z,93.94
2022-10-29T21:18:12.000Z,94.28
2022-10-29T21:21:14.056Z,95.00
2022-10-29T21:24:15.607Z,94.36
2022-10-29T21:27:17.204Z,94.42
2022-10-29T21:30:18.738Z,93.16
2022-10-29T21:33:20.251Z,92.74
2022-10-29T21:36:22.128Z,92.80
2022-10-29T21:39:23.657Z,92.70
2022-10-29T21:42:25.199Z,92.84
2022-10-29T21:45:26.766Z,92.00
2022-10-29T21:48:29.274Z,90.17
2022-10-29T21:51:30.828Z,88.46
2022-10-29T21:54:32.344Z,88.30
2022-10-29T21:57:34.326Z,88.26
2022-10-29T22:00:35.876Z,88.21
2022-10-29T22:03:40.451Z,88.89
2022-10-29T22:06:42.050Z,88.96
2022-10-29T22:09:43.638Z,89.53
2022-10-29T22:12:45.124Z,89.63
2022-10-29T22:15:46.697Z,90.20
2022-10-29T22:18:49.845Z,90.67
2022-10-29T22:21:51.395Z,91.21
2022-10-29T22:24:53.065Z,90.92
2022-10-29T22:27:54.748Z,90.83
2022-10-29T22:31:01.169Z,90.35
2022-10-29T22:34:02.683Z,89.94
2022-10-29T22:37:04.507Z,90.31
2022-10-29T22:40:06.798Z,90.36
2022-10-29T22:43:11.961Z,91.59
2022-10-29T22:46:15.674Z,90.99
2022-10-29T22:49:26.039Z,91.02
2022-10-29T22:52:27.637Z,91.45
2022-10-29T22:55:29.219Z,91.61
2022-10-29T22:58:30.839Z,92.38
2022-10-29T23:01:38.785Z,92.87
2022-10-29T23:04:43.913Z,93.27
2022-10-29T23:07:45.538Z,93.37
2022-10-29T23:10:47.083Z,93.55
2022-10-29T23:17:05.590Z,95.35
2022-10-29T23:20:07.385Z,95.14
2022-10-29T23:23:09.000Z,95.34
2022-10-29T23:26:11.624Z,95.80
2022-10-29T23:29:13.216Z,95.53
2022-10-29T23:32:14.738Z,95.51
2022-10-29T23:35:16.344Z,95.16
2022-10-29T23:38:18.391Z,95.55
2022-10-29T23:41:19.978Z,96.08
2022-10-29T23:44:21.486Z,96.65
2022-10-29T23:47:23.131Z,96.80
2022-10-29T23:50:24.646Z,97.64
2022-10-29T23:53:26.215Z,98.33
2022-10-29T23:56:27.759Z,98.68
2022-10-29T23:59:29.387Z,98.87
